sensor_id;sensor_type;location;lat;lon;timestamp;pressure;altitude;pressure_sealevel;temperature;humidity
31775;BME280;66189;49.000;11.640;2023-01-08T00:00:16;95583.81;;;2.82;85.84
31775;BME280;66189;49.000;11.640;2023-01-08T00:02:17;95579.59;;;2.90;86.25
31775;BME280;66189;49.000;11.640;2023-01-08T00:04:17;95574.72;;;2.92;86.09
31775;BME280;66189;49.000;11.640;2023-01-08T00:06:18;95574.38;;;3.02;85.44
31775;BME280;66189;49.000;11.640;2023-01-08T00:08:20;95577.09;;;2.85;86.16
31775;BME280;66189;49.000;11.640;2023-01-08T00:10:20;95576.94;;;2.81;86.55
31775;BME280;66189;49.000;11.640;2023-01-08T00:12:21;95576.72;;;3.04;86.37
31775;BME280;66189;49.000;11.640;2023-01-08T00:14:21;95572.09;;;2.83;87.46
31775;BME280;66189;49.000;11.640;2023-01-08T00:16:22;95567.91;;;2.74;87.69
31775;BME280;66189;49.000;11.640;2023-01-08T00:18:22;95573.66;;;2.76;87.43
31775;BME280;66189;49.000;11.640;2023-01-08T00:20:24;95567.59;;;2.75;87.53
31775;BME280;66189;49.000;11.640;2023-01-08T00:22:24;95570.81;;;2.90;86.70
31775;BME280;66189;49.000;11.640;2023-01-08T00:24:25;95566.56;;;2.97;86.49
31775;BME280;66189;49.000;11.640;2023-01-08T00:26:25;95557.72;;;2.84;86.49
31775;BME280;66189;49.000;11.640;2023-01-08T00:28:26;95545.94;;;2.94;85.99
31775;BME280;66189;49.000;11.640;2023-01-08T00:30:26;95549.88;;;2.88;86.42
31775;BME280;66189;49.000;11.640;2023-01-08T00:32:27;95545.19;;;2.85;86.65
31775;BME280;66189;49.000;11.640;2023-01-08T00:34:27;95547.84;;;2.85;86.85
31775;BME280;66189;49.000;11.640;2023-01-08T00:36:27;95544.13;;;2.86;87.36
31775;BME280;66189;49.000;11.640;2023-01-08T00:38:28;95537.53;;;2.83;87.26
31775;BME280;66189;49.000;11.640;2023-01-08T00:40:29;95537.97;;;2.94;87.48
31775;BME280;66189;49.000;11.640;2023-01-08T00:42:29;95534.22;;;3.04;86.56
31775;BME280;66189;49.000;11.640;2023-01-08T00:44:29;95542.38;;;2.90;86.61
31775;BME280;66189;49.000;11.640;2023-01-08T00:46:30;95545.69;;;2.87;86.87
31775;BME280;66189;49.000;11.640;2023-01-08T00:48:30;95541.63;;;2.81;86.93
31775;BME280;66189;49.000;11.640;2023-01-08T00:50:32;95540.38;;;2.87;87.04
31775;BME280;66189;49.000;11.640;2023-01-08T00:52:33;95536.13;;;2.95;86.88
31775;BME280;66189;49.000;11.640;2023-01-08T00:54:33;95539.53;;;3.04;86.41
31775;BME280;66189;49.000;11.640;2023-01-08T00:56:33;95540.16;;;3.01;86.23
31775;BME280;66189;49.000;11.640;2023-01-08T00:58:34;95536.25;;;2.98;86.68
31775;BME280;66189;49.000;11.640;2023-01-08T01:00:34;95541.25;;;3.00;85.93
31775;BME280;66189;49.000;11.640;2023-01-08T01:02:35;95537.63;;;3.13;85.70
31775;BME280;66189;49.000;11.640;2023-01-08T01:04:36;95531.56;;;3.04;85.82
31775;BME280;66189;49.000;11.640;2023-01-08T01:06:36;95527.19;;;2.99;85.82
31775;BME280;66189;49.000;11.640;2023-01-08T01:08:37;95514.88;;;2.86;86.23
31775;BME280;66189;49.000;11.640;2023-01-08T01:10:38;95518.16;;;2.92;86.18
31775;BME280;66189;49.000;11.640;2023-01-08T01:12:39;95517.53;;;2.86;86.51
31775;BME280;66189;49.000;11.640;2023-01-08T01:14:40;95512.66;;;2.97;86.22
31775;BME280;66189;49.000;11.640;2023-01-08T01:16:40;95521.13;;;2.90;85.82
31775;BME280;66189;49.000;11.640;2023-01-08T01:18:41;95524.25;;;2.83;86.40
31775;BME280;66189;49.000;11.640;2023-01-08T01:20:42;95522.72;;;2.82;86.18
31775;BME280;66189;49.000;11.640;2023-01-08T01:22:43;95520.53;;;2.84;86.49
31775;BME280;66189;49.000;11.640;2023-01-08T01:24:43;95523.81;;;2.81;85.98
31775;BME280;66189;49.000;11.640;2023-01-08T01:26:43;95524.75;;;2.86;86.09
31775;BME280;66189;49.000;11.640;2023-01-08T01:28:48;95517.19;;;2.96;85.16
31775;BME280;66189;49.000;11.640;2023-01-08T01:30:56;95518.81;;;2.80;85.73
31775;BME280;66189;49.000;11.640;2023-01-08T01:32:56;95519.94;;;2.70;85.70
31775;BME280;66189;49.000;11.640;2023-01-08T01:34:57;95512.88;;;2.83;85.59
31775;BME280;66189;49.000;11.640;2023-01-08T01:36:57;95515.25;;;2.67;85.45
31775;BME280;66189;49.000;11.640;2023-01-08T01:38:57;95518.22;;;2.65;85.63
31775;BME280;66189;49.000;11.640;2023-01-08T01:40:58;95509.34;;;2.61;86.15
31775;BME280;66189;49.000;11.640;2023-01-08T01:42:59;95506.19;;;2.68;86.08
31775;BME280;66189;49.000;11.640;2023-01-08T01:45:00;95500.09;;;2.67;86.13
31775;BME280;66189;49.000;11.640;2023-01-08T01:47:10;95510.88;;;2.71;85.77
31775;BME280;66189;49.000;11.640;2023-01-08T01:49:19;95505.31;;;2.55;86.53
31775;BME280;66189;49.000;11.640;2023-01-08T01:51:20;95503.44;;;2.47;86.21
31775;BME280;66189;49.000;11.640;2023-01-08T01:53:30;95510.75;;;2.50;86.07
31775;BME280;66189;49.000;11.640;2023-01-08T01:55:34;95510.56;;;2.64;85.28
31775;BME280;66189;49.000;11.640;2023-01-08T01:57:35;95506.06;;;2.56;85.87
31775;BME280;66189;49.000;11.640;2023-01-08T01:59:37;95500.78;;;2.47;86.18
31775;BME280;66189;49.000;11.640;2023-01-08T02:01:39;95493.44;;;2.35;85.22
31775;BME280;66189;49.000;11.640;2023-01-08T02:03:40;95489.75;;;2.19;85.24
31775;BME280;66189;49.000;11.640;2023-01-08T02:08:12;95495.53;;;1.94;84.35
31775;BME280;66189;49.000;11.640;2023-01-08T02:10:45;95497.41;;;2.03;85.67
31775;BME280;66189;49.000;11.640;2023-01-08T02:12:56;95495.38;;;2.00;85.80
31775;BME280;66189;49.000;11.640;2023-01-08T02:15:13;95498.50;;;2.10;84.57
31775;BME280;66189;49.000;11.640;2023-01-08T02:17:19;95503.63;;;1.89;84.32
31775;BME280;66189;49.000;11.640;2023-01-08T02:22:02;95496.63;;;1.93;84.71
31775;BME280;66189;49.000;11.640;2023-01-08T02:24:15;95486.50;;;1.78;84.86
31775;BME280;66189;49.000;11.640;2023-01-08T02:26:23;95480.06;;;1.79;85.14
31775;BME280;66189;49.000;11.640;2023-01-08T02:28:26;95469.31;;;1.67;84.73
31775;BME280;66189;49.000;11.640;2023-01-08T02:30:28;95468.22;;;1.68;85.90
31775;BME280;66189;49.000;11.640;2023-01-08T02:32:35;95476.66;;;1.61;85.52
31775;BME280;66189;49.000;11.640;2023-01-08T02:34:36;95474.94;;;1.74;86.11
31775;BME280;66189;49.000;11.640;2023-01-08T02:36:43;95463.72;;;1.77;86.26
31775;BME280;66189;49.000;11.640;2023-01-08T02:41:16;95464.03;;;1.75;85.60
31775;BME280;66189;49.000;11.640;2023-01-08T02:43:44;95457.00;;;1.62;85.20
31775;BME280;66189;49.000;11.640;2023-01-08T02:45:48;95459.03;;;1.65;85.04
31775;BME280;66189;49.000;11.640;2023-01-08T02:48:11;95452.50;;;1.63;84.09
31775;BME280;66189;49.000;11.640;2023-01-08T02:50:51;95446.84;;;1.73;84.05
31775;BME280;66189;49.000;11.640;2023-01-08T02:53:10;95446.53;;;1.83;85.61
31775;BME280;66189;49.000;11.640;2023-01-08T02:55:11;95439.34;;;1.92;85.70
31775;BME280;66189;49.000;11.640;2023-01-08T02:57:14;95433.91;;;1.89;86.07
31775;BME280;66189;49.000;11.640;2023-01-08T02:59:15;95438.28;;;1.85;86.03
31775;BME280;66189;49.000;11.640;2023-01-08T03:01:19;95435.94;;;1.83;85.67
31775;BME280;66189;49.000;11.640;2023-01-08T03:03:23;95442.31;;;1.82;85.72
31775;BME280;66189;49.000;11.640;2023-01-08T03:05:25;95441.56;;;1.82;86.28
31775;BME280;66189;49.000;11.640;2023-01-08T03:07:26;95445.59;;;1.97;85.44
31775;BME280;66189;49.000;11.640;2023-01-08T03:09:27;95437.81;;;1.91;84.85
31775;BME280;66189;49.000;11.640;2023-01-08T03:11:31;95450.59;;;1.89;85.47
31775;BME280;66189;49.000;11.640;2023-01-08T03:15:45;95447.63;;;1.82;85.68
31775;BME280;66189;49.000;11.640;2023-01-08T03:17:49;95454.66;;;1.78;86.14
31775;BME280;66189;49.000;11.640;2023-01-08T03:19:54;95451.38;;;1.90;85.57
31775;BME280;66189;49.000;11.640;2023-01-08T03:21:56;95444.34;;;1.85;85.80
31775;BME280;66189;49.000;11.640;2023-01-08T03:23:57;95437.34;;;1.72;85.27
31775;BME280;66189;49.000;11.640;2023-01-08T03:25:59;95438.91;;;1.73;85.70
31775;BME280;66189;49.000;11.640;2023-01-08T03:28:04;95444.03;;;1.60;85.93
31775;BME280;66189;49.000;11.640;2023-01-08T03:30:07;95444.38;;;1.68;85.91
31775;BME280;66189;49.000;11.640;2023-01-08T03:32:13;95435.97;;;1.66;85.85
31775;BME280;66189;49.000;11.640;2023-01-08T03:34:15;95429.72;;;1.62;85.89
31775;BME280;66189;49.000;11.640;2023-01-08T03:36:20;95439.84;;;1.59;86.06
31775;BME280;66189;49.000;11.640;2023-01-08T03:40:30;95438.75;;;1.60;85.96
31775;BME280;66189;49.000;11.640;2023-01-08T03:42:34;95438.28;;;1.76;85.37
31775;BME280;66189;49.000;11.640;2023-01-08T03:44:34;95440.31;;;1.70;85.37
31775;BME280;66189;49.000;11.640;2023-01-08T03:46:39;95428.78;;;1.75;84.63
31775;BME280;66189;49.000;11.640;2023-01-08T03:48:42;95438.13;;;1.64;84.50
31775;BME280;66189;49.000;11.640;2023-01-08T03:50:43;95440.00;;;1.72;84.65
31775;BME280;66189;49.000;11.640;2023-01-08T03:52:43;95437.81;;;1.74;84.79
31775;BME280;66189;49.000;11.640;2023-01-08T03:54:43;95428.75;;;1.57;84.16
31775;BME280;66189;49.000;11.640;2023-01-08T03:56:44;95419.72;;;1.41;84.80
31775;BME280;66189;49.000;11.640;2023-01-08T03:58:44;95416.91;;;1.46;85.21
31775;BME280;66189;49.000;11.640;2023-01-08T04:00:45;95420.97;;;1.44;85.10
31775;BME280;66189;49.000;11.640;2023-01-08T04:02:46;95423.47;;;1.57;85.33
31775;BME280;66189;49.000;11.640;2023-01-08T04:04:46;95418.47;;;1.65;84.96
31775;BME280;66189;49.000;11.640;2023-01-08T04:06:47;95408.19;;;1.54;85.73
31775;BME280;66189;49.000;11.640;2023-01-08T04:08:47;95404.59;;;1.50;85.84
31775;BME280;66189;49.000;11.640;2023-01-08T04:10:48;95411.63;;;1.37;85.53
31775;BME280;66189;49.000;11.640;2023-01-08T04:12:48;95397.88;;;1.44;84.88
31775;BME280;66189;49.000;11.640;2023-01-08T04:14:48;95390.72;;;1.36;85.10
31775;BME280;66189;49.000;11.640;2023-01-08T04:16:49;95387.59;;;1.25;84.49
31775;BME280;66189;49.000;11.640;2023-01-08T04:18:49;95386.97;;;1.19;85.23
31775;BME280;66189;49.000;11.640;2023-01-08T04:20:50;95372.31;;;1.13;85.21
31775;BME280;66189;49.000;11.640;2023-01-08T04:22:50;95380.28;;;1.22;85.61
31775;BME280;66189;49.000;11.640;2023-01-08T04:24:50;95376.19;;;0.98;84.79
31775;BME280;66189;49.000;11.640;2023-01-08T04:26:51;95366.53;;;0.94;85.19
31775;BME280;66189;49.000;11.640;2023-01-08T04:28:51;95367.00;;;0.96;84.87
31775;BME280;66189;49.000;11.640;2023-01-08T04:30:52;95355.63;;;0.95;84.79
31775;BME280;66189;49.000;11.640;2023-01-08T04:32:52;95362.31;;;0.93;84.73
31775;BME280;66189;49.000;11.640;2023-01-08T04:34:53;95355.31;;;0.97;84.86
31775;BME280;66189;49.000;11.640;2023-01-08T04:36:53;95349.38;;;1.00;84.90
31775;BME280;66189;49.000;11.640;2023-01-08T04:38:53;95357.22;;;1.05;85.01
31775;BME280;66189;49.000;11.640;2023-01-08T04:40:58;95350.50;;;1.08;85.06
31775;BME280;66189;49.000;11.640;2023-01-08T04:42:58;95352.22;;;1.21;84.91
31775;BME280;66189;49.000;11.640;2023-01-08T04:44:59;95355.63;;;1.04;84.89
31775;BME280;66189;49.000;11.640;2023-01-08T04:46:59;95351.88;;;0.96;84.91
31775;BME280;66189;49.000;11.640;2023-01-08T04:48:59;95337.06;;;0.86;84.48
31775;BME280;66189;49.000;11.640;2023-01-08T04:51:01;95339.59;;;1.00;84.52
31775;BME280;66189;49.000;11.640;2023-01-08T04:53:02;95348.28;;;0.92;84.11
31775;BME280;66189;49.000;11.640;2023-01-08T04:55:03;95340.03;;;0.85;83.93
31775;BME280;66189;49.000;11.640;2023-01-08T04:57:03;95332.56;;;0.87;83.57
31775;BME280;66189;49.000;11.640;2023-01-08T04:59:04;95346.72;;;0.82;84.04
31775;BME280;66189;49.000;11.640;2023-01-08T05:01:19;95348.59;;;0.91;85.17
31775;BME280;66189;49.000;11.640;2023-01-08T05:03:20;95355.13;;;0.84;85.16
31775;BME280;66189;49.000;11.640;2023-01-08T05:05:20;95357.78;;;0.84;84.66
31775;BME280;66189;49.000;11.640;2023-01-08T05:07:20;95354.03;;;0.77;84.92
31775;BME280;66189;49.000;11.640;2023-01-08T05:09:21;95347.63;;;0.69;84.77
31775;BME280;66189;49.000;11.640;2023-01-08T05:11:22;95344.06;;;0.74;84.38
31775;BME280;66189;49.000;11.640;2023-01-08T05:13:22;95352.59;;;0.62;84.98
31775;BME280;66189;49.000;11.640;2023-01-08T05:15:22;95360.56;;;0.70;85.71
31775;BME280;66189;49.000;11.640;2023-01-08T05:17:23;95354.97;;;0.72;85.33
31775;BME280;66189;49.000;11.640;2023-01-08T05:19:23;95350.78;;;0.88;84.84
31775;BME280;66189;49.000;11.640;2023-01-08T05:21:24;95343.75;;;0.75;84.49
31775;BME280;66189;49.000;11.640;2023-01-08T05:23:24;95331.44;;;0.70;84.11
31775;BME280;66189;49.000;11.640;2023-01-08T05:25:25;95333.47;;;0.74;84.00
31775;BME280;66189;49.000;11.640;2023-01-08T05:27:27;95334.75;;;0.76;84.64
31775;BME280;66189;49.000;11.640;2023-01-08T05:29:28;95336.00;;;1.14;85.10
31775;BME280;66189;49.000;11.640;2023-01-08T05:31:28;95333.81;;;1.07;85.42
31775;BME280;66189;49.000;11.640;2023-01-08T05:33:29;95322.78;;;1.05;85.13
31775;BME280;66189;49.000;11.640;2023-01-08T05:35:29;95329.94;;;1.13;85.13
31775;BME280;66189;49.000;11.640;2023-01-08T05:37:30;95329.75;;;1.27;85.43
31775;BME280;66189;49.000;11.640;2023-01-08T05:39:32;95336.47;;;1.42;84.77
31775;BME280;66189;49.000;11.640;2023-01-08T05:41:33;95322.72;;;1.57;84.35
31775;BME280;66189;49.000;11.640;2023-01-08T05:43:33;95317.75;;;1.47;83.92
31775;BME280;66189;49.000;11.640;2023-01-08T05:45:34;95327.88;;;1.45;83.82
31775;BME280;66189;49.000;11.640;2023-01-08T05:47:34;95323.66;;;1.44;83.75
31775;BME280;66189;49.000;11.640;2023-01-08T05:49:35;95322.13;;;1.43;83.82
31775;BME280;66189;49.000;11.640;2023-01-08T05:51:35;95329.59;;;1.41;83.67
31775;BME280;66189;49.000;11.640;2023-01-08T05:53:36;95323.53;;;1.49;83.25
31775;BME280;66189;49.000;11.640;2023-01-08T05:55:36;95316.78;;;1.52;83.33
31775;BME280;66189;49.000;11.640;2023-01-08T05:57:37;95325.81;;;1.68;82.24
31775;BME280;66189;49.000;11.640;2023-01-08T05:59:37;95327.56;;;1.47;83.04
31775;BME280;66189;49.000;11.640;2023-01-08T06:01:38;95327.25;;;1.48;82.93
31775;BME280;66189;49.000;11.640;2023-01-08T06:03:38;95333.81;;;1.51;82.84
31775;BME280;66189;49.000;11.640;2023-01-08T06:05:39;95335.84;;;1.45;83.02
31775;BME280;66189;49.000;11.640;2023-01-08T06:07:39;95331.94;;;1.51;82.95
31775;BME280;66189;49.000;11.640;2023-01-08T06:09:40;95343.94;;;1.57;82.62
31775;BME280;66189;49.000;11.640;2023-01-08T06:11:40;95343.31;;;1.52;82.84
31775;BME280;66189;49.000;11.640;2023-01-08T06:13:42;95337.88;;;1.48;82.66
31775;BME280;66189;49.000;11.640;2023-01-08T06:15:43;95334.13;;;1.58;82.50
31775;BME280;66189;49.000;11.640;2023-01-08T06:17:43;95319.56;;;1.73;81.95
31775;BME280;66189;49.000;11.640;2023-01-08T06:19:43;95320.81;;;1.75;82.20
31775;BME280;66189;49.000;11.640;2023-01-08T06:21:46;95320.50;;;1.77;82.10
31775;BME280;66189;49.000;11.640;2023-01-08T06:23:46;95319.44;;;1.69;82.24
31775;BME280;66189;49.000;11.640;2023-01-08T06:25:54;95321.63;;;1.58;82.20
31775;BME280;66189;49.000;11.640;2023-01-08T06:27:55;95322.41;;;1.59;82.17
31775;BME280;66189;49.000;11.640;2023-01-08T06:29:55;95335.38;;;1.43;82.69
31775;BME280;66189;49.000;11.640;2023-01-08T06:31:56;95325.56;;;1.35;83.05
31775;BME280;66189;49.000;11.640;2023-01-08T06:33:56;95324.63;;;1.31;83.36
31775;BME280;66189;49.000;11.640;2023-01-08T06:36:02;95332.56;;;1.39;84.20
31775;BME280;66189;49.000;11.640;2023-01-08T06:38:03;95329.91;;;1.48;84.60
31775;BME280;66189;49.000;11.640;2023-01-08T06:40:04;95322.91;;;1.52;84.46
31775;BME280;66189;49.000;11.640;2023-01-08T06:42:04;95323.22;;;1.59;84.24
31775;BME280;66189;49.000;11.640;2023-01-08T06:44:05;95319.63;;;1.55;83.92
31775;BME280;66189;49.000;11.640;2023-01-08T06:46:07;95314.31;;;1.55;82.69
31775;BME280;66189;49.000;11.640;2023-01-08T06:48:08;95316.78;;;1.60;82.71
31775;BME280;66189;49.000;11.640;2023-01-08T06:50:08;95314.00;;;1.57;82.43
31775;BME280;66189;49.000;11.640;2023-01-08T06:52:09;95313.34;;;1.69;81.91
31775;BME280;66189;49.000;11.640;2023-01-08T06:54:10;95313.81;;;1.62;81.99
31775;BME280;66189;49.000;11.640;2023-01-08T06:56:10;95311.50;;;1.60;83.08
31775;BME280;66189;49.000;11.640;2023-01-08T06:58:11;95311.03;;;1.58;82.37
31775;BME280;66189;49.000;11.640;2023-01-08T07:00:12;95311.34;;;1.57;83.57
31775;BME280;66189;49.000;11.640;2023-01-08T07:02:14;95297.91;;;1.71;82.22
31775;BME280;66189;49.000;11.640;2023-01-08T07:04:16;95305.56;;;1.55;82.16
31775;BME280;66189;49.000;11.640;2023-01-08T07:06:20;95299.19;;;1.56;82.43
31775;BME280;66189;49.000;11.640;2023-01-08T07:08:22;95299.03;;;1.52;82.10
31775;BME280;66189;49.000;11.640;2023-01-08T07:10:22;95304.91;;;1.67;81.99
31775;BME280;66189;49.000;11.640;2023-01-08T07:12:23;95303.97;;;1.71;81.93
31775;BME280;66189;49.000;11.640;2023-01-08T07:14:24;95305.41;;;1.69;81.81
31775;BME280;66189;49.000;11.640;2023-01-08T07:16:24;95296.00;;;1.80;81.33
31775;BME280;66189;49.000;11.640;2023-01-08T07:18:24;95301.94;;;1.77;81.16
31775;BME280;66189;49.000;11.640;2023-01-08T07:20:25;95319.13;;;1.71;81.00
31775;BME280;66189;49.000;11.640;2023-01-08T07:22:26;95314.44;;;1.68;81.64
31775;BME280;66189;49.000;11.640;2023-01-08T07:24:27;95319.94;;;1.63;81.72
31775;BME280;66189;49.000;11.640;2023-01-08T07:26:27;95318.63;;;1.77;81.53
31775;BME280;66189;49.000;11.640;2023-01-08T07:28:28;95309.88;;;1.86;80.73
31775;BME280;66189;49.000;11.640;2023-01-08T07:30:29;95315.97;;;1.77;81.34
31775;BME280;66189;49.000;11.640;2023-01-08T07:32:29;95327.38;;;1.69;81.84
31775;BME280;66189;49.000;11.640;2023-01-08T07:34:30;95326.13;;;1.67;81.99
31775;BME280;66189;49.000;11.640;2023-01-08T07:36:30;95333.63;;;1.65;82.00
31775;BME280;66189;49.000;11.640;2023-01-08T07:38:31;95332.25;;;1.41;82.39
31775;BME280;66189;49.000;11.640;2023-01-08T07:40:31;95349.09;;;1.45;83.66
31775;BME280;66189;49.000;11.640;2023-01-08T07:42:32;95342.72;;;1.37;84.04
31775;BME280;66189;49.000;11.640;2023-01-08T07:44:32;95338.81;;;1.44;84.05
31775;BME280;66189;49.000;11.640;2023-01-08T07:46:32;95338.19;;;1.47;83.41
31775;BME280;66189;49.000;11.640;2023-01-08T07:48:33;95326.00;;;1.54;82.67
31775;BME280;66189;49.000;11.640;2023-01-08T07:50:35;95333.94;;;1.63;82.18
31775;BME280;66189;49.000;11.640;2023-01-08T07:52:36;95327.69;;;1.68;81.53
31775;BME280;66189;49.000;11.640;2023-01-08T07:54:36;95336.28;;;1.56;82.12
31775;BME280;66189;49.000;11.640;2023-01-08T07:56:36;95328.97;;;1.62;82.01
31775;BME280;66189;49.000;11.640;2023-01-08T07:58:37;95333.13;;;1.80;81.24
31775;BME280;66189;49.000;11.640;2023-01-08T08:00:37;95334.88;;;1.67;81.97
31775;BME280;66189;49.000;11.640;2023-01-08T08:02:38;95335.16;;;1.74;81.28
31775;BME280;66189;49.000;11.640;2023-01-08T08:04:38;95338.31;;;1.59;82.20
31775;BME280;66189;49.000;11.640;2023-01-08T08:06:39;95332.88;;;1.55;82.87
31775;BME280;66189;49.000;11.640;2023-01-08T08:08:39;95333.19;;;1.54;83.00
31775;BME280;66189;49.000;11.640;2023-01-08T08:10:40;95340.97;;;1.50;82.71
31775;BME280;66189;49.000;11.640;2023-01-08T08:12:43;95338.31;;;1.50;83.22
31775;BME280;66189;49.000;11.640;2023-01-08T08:14:44;95332.56;;;1.48;83.08
31775;BME280;66189;49.000;11.640;2023-01-08T08:16:44;95334.13;;;1.49;83.37
31775;BME280;66189;49.000;11.640;2023-01-08T08:18:45;95343.63;;;1.50;83.02
31775;BME280;66189;49.000;11.640;2023-01-08T08:20:45;95344.41;;;1.59;82.98
31775;BME280;66189;49.000;11.640;2023-01-08T08:22:46;95344.53;;;1.72;83.17
31775;BME280;66189;49.000;11.640;2023-01-08T08:24:46;95332.38;;;1.80;81.55
31775;BME280;66189;49.000;11.640;2023-01-08T08:26:47;95335.28;;;1.95;81.18
31775;BME280;66189;49.000;11.640;2023-01-08T08:28:48;95329.22;;;1.77;81.65
31775;BME280;66189;49.000;11.640;2023-01-08T08:30:50;95335.00;;;1.80;81.56
31775;BME280;66189;49.000;11.640;2023-01-08T08:32:50;95336.72;;;1.84;81.32
31775;BME280;66189;49.000;11.640;2023-01-08T08:34:51;95337.97;;;1.78;81.73
31775;BME280;66189;49.000;11.640;2023-01-08T08:36:51;95336.72;;;1.84;81.84
31775;BME280;66189;49.000;11.640;2023-01-08T08:38:51;95326.41;;;1.91;82.25
31775;BME280;66189;49.000;11.640;2023-01-08T08:40:52;95322.75;;;2.05;81.20
31775;BME280;66189;49.000;11.640;2023-01-08T08:43:01;95330.16;;;1.90;81.90
31775;BME280;66189;49.000;11.640;2023-01-08T08:45:02;95334.38;;;1.83;81.75
31775;BME280;66189;49.000;11.640;2023-01-08T08:47:06;95332.16;;;1.93;82.57
31775;BME280;66189;49.000;11.640;2023-01-08T08:49:07;95328.38;;;2.03;82.78
31775;BME280;66189;49.000;11.640;2023-01-08T08:51:07;95324.78;;;2.08;83.08
31775;BME280;66189;49.000;11.640;2023-01-08T08:53:08;95328.53;;;2.07;81.77
31775;BME280;66189;49.000;11.640;2023-01-08T08:55:09;95325.72;;;2.03;81.93
31775;BME280;66189;49.000;11.640;2023-01-08T08:57:12;95330.25;;;2.11;81.02
31775;BME280;66189;49.000;11.640;2023-01-08T08:59:12;95327.41;;;2.17;81.27
31775;BME280;66189;49.000;11.640;2023-01-08T09:01:13;95326.00;;;2.19;81.70
31775;BME280;66189;49.000;11.640;2023-01-08T09:03:13;95326.78;;;2.11;81.06
31775;BME280;66189;49.000;11.640;2023-01-08T09:05:14;95325.47;;;2.35;80.44
31775;BME280;66189;49.000;11.640;2023-01-08T09:07:15;95333.38;;;2.05;80.60
31775;BME280;66189;49.000;11.640;2023-01-08T09:09:15;95334.44;;;2.12;82.36
31775;BME280;66189;49.000;11.640;2023-01-08T09:11:16;95327.72;;;2.15;81.58
31775;BME280;66189;49.000;11.640;2023-01-08T09:13:17;95334.91;;;2.15;80.60
31775;BME280;66189;49.000;11.640;2023-01-08T09:15:18;95338.19;;;2.11;79.94
31775;BME280;66189;49.000;11.640;2023-01-08T09:17:19;95329.72;;;2.18;80.03
31775;BME280;66189;49.000;11.640;2023-01-08T09:19:20;95329.38;;;2.28;79.19
31775;BME280;66189;49.000;11.640;2023-01-08T09:21:22;95328.19;;;2.17;79.72
31775;BME280;66189;49.000;11.640;2023-01-08T09:23:22;95332.25;;;2.15;80.06
31775;BME280;66189;49.000;11.640;2023-01-08T09:25:25;95336.75;;;2.14;81.02
31775;BME280;66189;49.000;11.640;2023-01-08T09:27:25;95335.97;;;2.22;80.64
31775;BME280;66189;49.000;11.640;2023-01-08T09:29:26;95339.41;;;2.14;80.67
31775;BME280;66189;49.000;11.640;2023-01-08T09:31:26;95348.94;;;2.24;80.95
31775;BME280;66189;49.000;11.640;2023-01-08T09:33:27;95345.31;;;2.28;81.37
31775;BME280;66189;49.000;11.640;2023-01-08T09:35:28;95348.41;;;2.30;80.98
31775;BME280;66189;49.000;11.640;2023-01-08T09:37:29;95341.47;;;2.47;80.75
31775;BME280;66189;49.000;11.640;2023-01-08T09:39:30;95348.72;;;2.38;80.13
31775;BME280;66189;49.000;11.640;2023-01-08T09:41:33;95353.97;;;2.46;79.57
31775;BME280;66189;49.000;11.640;2023-01-08T09:43:37;95341.97;;;2.49;80.23
31775;BME280;66189;49.000;11.640;2023-01-08T09:45:38;95329.53;;;2.62;80.58
31775;BME280;66189;49.000;11.640;2023-01-08T09:47:42;95324.69;;;2.64;79.79
31775;BME280;66189;49.000;11.640;2023-01-08T09:49:44;95331.00;;;2.80;79.55
31775;BME280;66189;49.000;11.640;2023-01-08T09:51:45;95327.94;;;2.70;78.00
31775;BME280;66189;49.000;11.640;2023-01-08T09:53:49;95330.16;;;2.89;78.28
31775;BME280;66189;49.000;11.640;2023-01-08T09:56:03;95332.34;;;2.87;78.50
31775;BME280;66189;49.000;11.640;2023-01-08T09:58:23;95331.97;;;2.76;77.45
31775;BME280;66189;49.000;11.640;2023-01-08T10:00:29;95336.34;;;2.72;77.40
31775;BME280;66189;49.000;11.640;2023-01-08T10:02:38;95333.31;;;2.82;78.57
31775;BME280;66189;49.000;11.640;2023-01-08T10:04:39;95328.94;;;2.86;77.92
31775;BME280;66189;49.000;11.640;2023-01-08T10:06:45;95324.25;;;2.83;78.41
31775;BME280;66189;49.000;11.640;2023-01-08T10:08:49;95316.75;;;3.06;77.51
31775;BME280;66189;49.000;11.640;2023-01-08T10:10:49;95318.00;;;3.09;76.91
31775;BME280;66189;49.000;11.640;2023-01-08T10:12:50;95318.75;;;3.09;75.98
31775;BME280;66189;49.000;11.640;2023-01-08T10:14:57;95310.59;;;3.14;76.08
31775;BME280;66189;49.000;11.640;2023-01-08T10:17:02;95319.78;;;3.17;76.14
31775;BME280;66189;49.000;11.640;2023-01-08T10:19:05;95314.03;;;3.15;76.95
31775;BME280;66189;49.000;11.640;2023-01-08T10:21:09;95312.09;;;3.24;77.38
31775;BME280;66189;49.000;11.640;2023-01-08T10:23:15;95305.13;;;3.32;77.47
31775;BME280;66189;49.000;11.640;2023-01-08T10:25:18;95308.50;;;3.41;77.64
31775;BME280;66189;49.000;11.640;2023-01-08T10:27:23;95304.44;;;3.56;77.61
31775;BME280;66189;49.000;11.640;2023-01-08T10:29:24;95289.59;;;3.55;78.14
31775;BME280;66189;49.000;11.640;2023-01-08T10:31:24;95279.13;;;3.71;77.40
31775;BME280;66189;49.000;11.640;2023-01-08T10:33:39;95280.75;;;3.63;76.68
31775;BME280;66189;49.000;11.640;2023-01-08T10:35:41;95296.03;;;3.54;75.70
31775;BME280;66189;49.000;11.640;2023-01-08T10:37:42;95305.34;;;3.60;76.43
31775;BME280;66189;49.000;11.640;2023-01-08T10:39:45;95290.25;;;3.52;78.85
31775;BME280;66189;49.000;11.640;2023-01-08T10:41:47;95282.69;;;3.42;77.92
31775;BME280;66189;49.000;11.640;2023-01-08T10:44:01;95280.25;;;3.49;77.71
31775;BME280;66189;49.000;11.640;2023-01-08T10:48:22;95274.63;;;3.50;76.58
31775;BME280;66189;49.000;11.640;2023-01-08T10:50:27;95259.22;;;3.44;76.40
31775;BME280;66189;49.000;11.640;2023-01-08T10:52:34;95251.94;;;3.65;77.87
31775;BME280;66189;49.000;11.640;2023-01-08T10:54:38;95252.84;;;3.69;76.65
31775;BME280;66189;49.000;11.640;2023-01-08T10:56:41;95260.56;;;3.50;75.87
31775;BME280;66189;49.000;11.640;2023-01-08T10:58:42;95252.72;;;3.66;78.17
31775;BME280;66189;49.000;11.640;2023-01-08T11:00:42;95247.31;;;3.99;80.09